sensor_id;sensor_type;location;lat;lon;timestamp;P1;durP1;ratioP1;P2;durP2;ratioP2
7273;SDS011;3678;60.002;17.846;2022-11-20T00:01:09;3.03;;;1.98;;
7273;SDS011;3678;60.002;17.846;2022-11-20T00:03:36;1.98;;;1.70;;
7273;SDS011;3678;60.002;17.846;2022-11-20T00:06:05;2.40;;;1.87;;
7273;SDS011;3678;60.002;17.846;2022-11-20T00:08:32;2.63;;;1.80;;
7273;SDS011;3678;60.002;17.846;2022-11-20T00:11:03;2.63;;;1.90;;
7273;SDS011;3678;60.002;17.846;2022-11-20T00:13:31;2.35;;;2.00;;
7273;SDS011;3678;60.002;17.846;2022-11-20T00:15:58;2.53;;;1.85;;
7273;SDS011;3678;60.002;17.846;2022-11-20T00:18:26;1.90;;;1.70;;
7273;SDS011;3678;60.002;17.846;2022-11-20T00:20:53;2.40;;;1.77;;
7273;SDS011;3678;60.002;17.846;2022-11-20T00:23:20;2.88;;;1.80;;
7273;SDS011;3678;60.002;17.846;2022-11-20T00:25:47;3.10;;;1.90;;
7273;SDS011;3678;60.002;17.846;2022-11-20T00:28:16;2.55;;;1.92;;
7273;SDS011;3678;60.002;17.846;2022-11-20T00:30:43;2.95;;;1.90;;
7273;SDS011;3678;60.002;17.846;2022-11-20T00:33:10;2.40;;;1.93;;
7273;SDS011;3678;60.002;17.846;2022-11-20T00:35:37;3.25;;;2.00;;
7273;SDS011;3678;60.002;17.846;2022-11-20T00:38:05;2.70;;;1.90;;
7273;SDS011;3678;60.002;17.846;2022-11-20T00:40:32;2.83;;;2.22;;
7273;SDS011;3678;60.002;17.846;2022-11-20T00:42:59;2.30;;;2.00;;
7273;SDS011;3678;60.002;17.846;2022-11-20T00:45:27;2.33;;;1.80;;
7273;SDS011;3678;60.002;17.846;2022-11-20T00:47:55;2.83;;;2.00;;
7273;SDS011;3678;60.002;17.846;2022-11-20T00:50:22;2.55;;;2.05;;
7273;SDS011;3678;60.002;17.846;2022-11-20T00:52:49;1.90;;;1.70;;
7273;SDS011;3678;60.002;17.846;2022-11-20T00:55:16;2.17;;;1.90;;
7273;SDS011;3678;60.002;17.846;2022-11-20T00:57:43;2.90;;;2.17;;
7273;SDS011;3678;60.002;17.846;2022-11-20T01:00:11;2.70;;;2.10;;
7273;SDS011;3678;60.002;17.846;2022-11-20T01:02:39;2.67;;;2.15;;
7273;SDS011;3678;60.002;17.846;2022-11-20T01:05:06;2.57;;;2.30;;
7273;SDS011;3678;60.002;17.846;2022-11-20T01:07:34;3.40;;;2.60;;
7273;SDS011;3678;60.002;17.846;2022-11-20T01:10:01;2.70;;;2.40;;
7273;SDS011;3678;60.002;17.846;2022-11-20T01:12:28;3.10;;;2.53;;
7273;SDS011;3678;60.002;17.846;2022-11-20T01:14:55;2.90;;;2.30;;
7273;SDS011;3678;60.002;17.846;2022-11-20T01:17:22;3.10;;;2.38;;
7273;SDS011;3678;60.002;17.846;2022-11-20T01:19:51;2.75;;;2.35;;
7273;SDS011;3678;60.002;17.846;2022-11-20T01:22:18;2.85;;;2.10;;
7273;SDS011;3678;60.002;17.846;2022-11-20T01:24:45;2.97;;;2.45;;
7273;SDS011;3678;60.002;17.846;2022-11-20T01:27:12;2.85;;;2.30;;
7273;SDS011;3678;60.002;17.846;2022-11-20T01:29:39;2.55;;;2.20;;
7273;SDS011;3678;60.002;17.846;2022-11-20T01:32:07;2.67;;;2.47;;
7273;SDS011;3678;60.002;17.846;2022-11-20T01:34:34;2.50;;;2.30;;
7273;SDS011;3678;60.002;17.846;2022-11-20T01:37:02;3.63;;;2.45;;
7273;SDS011;3678;60.002;17.846;2022-11-20T01:39:29;2.78;;;2.50;;
7273;SDS011;3678;60.002;17.846;2022-11-20T01:41:57;2.92;;;2.40;;
7273;SDS011;3678;60.002;17.846;2022-11-20T01:44:46;3.70;;;2.37;;
7273;SDS011;3678;60.002;17.846;2022-11-20T01:47:16;3.25;;;2.83;;
7273;SDS011;3678;60.002;17.846;2022-11-20T01:49:45;3.50;;;2.80;;
7273;SDS011;3678;60.002;17.846;2022-11-20T01:52:15;3.72;;;2.58;;
7273;SDS011;3678;60.002;17.846;2022-11-20T01:54:43;2.30;;;2.10;;
7273;SDS011;3678;60.002;17.846;2022-11-20T01:57:14;2.60;;;2.20;;
7273;SDS011;3678;60.002;17.846;2022-11-20T01:59:43;3.55;;;2.53;;
7273;SDS011;3678;60.002;17.846;2022-11-20T02:02:11;3.30;;;2.00;;
7273;SDS011;3678;60.002;17.846;2022-11-20T02:04:38;2.75;;;2.20;;
7273;SDS011;3678;60.002;17.846;2022-11-20T02:07:05;2.53;;;2.20;;
7273;SDS011;3678;60.002;17.846;2022-11-20T02:09:34;3.30;;;2.10;;
7273;SDS011;3678;60.002;17.846;2022-11-20T02:12:01;3.13;;;2.13;;
7273;SDS011;3678;60.002;17.846;2022-11-20T02:14:29;2.10;;;1.90;;
7273;SDS011;3678;60.002;17.846;2022-11-20T02:16:55;2.08;;;1.83;;
7273;SDS011;3678;60.002;17.846;2022-11-20T02:19:24;2.40;;;1.70;;
7273;SDS011;3678;60.002;17.846;2022-11-20T02:21:55;2.20;;;1.90;;
7273;SDS011;3678;60.002;17.846;2022-11-20T02:24:24;3.08;;;1.83;;
7273;SDS011;3678;60.002;17.846;2022-11-20T02:26:53;2.10;;;1.90;;
7273;SDS011;3678;60.002;17.846;2022-11-20T02:29:23;2.25;;;1.80;;
7273;SDS011;3678;60.002;17.846;2022-11-20T02:31:50;2.35;;;1.75;;
7273;SDS011;3678;60.002;17.846;2022-11-20T02:34:18;2.20;;;1.70;;
7273;SDS011;3678;60.002;17.846;2022-11-20T02:36:45;1.87;;;1.67;;
7273;SDS011;3678;60.002;17.846;2022-11-20T02:39:13;2.92;;;1.83;;
7273;SDS011;3678;60.002;17.846;2022-11-20T02:41:44;2.28;;;1.73;;
7273;SDS011;3678;60.002;17.846;2022-11-20T02:44:11;2.40;;;1.73;;
7273;SDS011;3678;60.002;17.846;2022-11-20T02:46:38;2.55;;;1.60;;
7273;SDS011;3678;60.002;17.846;2022-11-20T02:49:06;1.73;;;1.52;;
7273;SDS011;3678;60.002;17.846;2022-11-20T02:51:33;1.88;;;1.67;;
7273;SDS011;3678;60.002;17.846;2022-11-20T02:54:00;1.92;;;1.45;;
7273;SDS011;3678;60.002;17.846;2022-11-20T02:56:27;2.10;;;1.50;;
7273;SDS011;3678;60.002;17.846;2022-11-20T02:58:56;2.05;;;1.50;;
7273;SDS011;3678;60.002;17.846;2022-11-20T03:01:24;2.30;;;1.48;;
7273;SDS011;3678;60.002;17.846;2022-11-20T03:03:51;1.65;;;1.40;;
7273;SDS011;3678;60.002;17.846;2022-11-20T03:06:19;2.80;;;1.40;;
7273;SDS011;3678;60.002;17.846;2022-11-20T03:08:47;1.58;;;1.42;;
7273;SDS011;3678;60.002;17.846;2022-11-20T03:11:14;1.63;;;1.48;;
7273;SDS011;3678;60.002;17.846;2022-11-20T03:13:41;1.88;;;1.30;;
7273;SDS011;3678;60.002;17.846;2022-11-20T03:16:11;1.48;;;1.30;;
7273;SDS011;3678;60.002;17.846;2022-11-20T03:18:38;1.63;;;1.30;;
7273;SDS011;3678;60.002;17.846;2022-11-20T03:21:06;2.73;;;1.40;;
7273;SDS011;3678;60.002;17.846;2022-11-20T03:23:33;1.57;;;1.40;;
7273;SDS011;3678;60.002;17.846;2022-11-20T03:26:08;1.77;;;1.30;;
7273;SDS011;3678;60.002;17.846;2022-11-20T03:28:35;1.38;;;1.20;;
7273;SDS011;3678;60.002;17.846;2022-11-20T03:31:06;1.30;;;1.20;;
7273;SDS011;3678;60.002;17.846;2022-11-20T03:33:35;1.83;;;1.27;;
7273;SDS011;3678;60.002;17.846;2022-11-20T03:36:02;1.20;;;1.10;;
7273;SDS011;3678;60.002;17.846;2022-11-20T03:38:29;1.73;;;1.20;;
7273;SDS011;3678;60.002;17.846;2022-11-20T03:41:00;2.22;;;1.30;;
7273;SDS011;3678;60.002;17.846;2022-11-20T03:43:27;1.85;;;1.50;;
7273;SDS011;3678;60.002;17.846;2022-11-20T03:45:55;1.52;;;1.33;;
7273;SDS011;3678;60.002;17.846;2022-11-20T03:48:22;1.83;;;1.40;;
7273;SDS011;3678;60.002;17.846;2022-11-20T03:50:50;2.17;;;1.40;;
7273;SDS011;3678;60.002;17.846;2022-11-20T03:53:17;1.85;;;1.45;;
7273;SDS011;3678;60.002;17.846;2022-11-20T03:55:45;1.30;;;1.10;;
7273;SDS011;3678;60.002;17.846;2022-11-20T03:58:12;1.55;;;1.30;;
7273;SDS011;3678;60.002;17.846;2022-11-20T04:00:39;2.47;;;1.30;;
7273;SDS011;3678;60.002;17.846;2022-11-20T04:03:06;1.30;;;1.15;;
7273;SDS011;3678;60.002;17.846;2022-11-20T04:05:34;1.33;;;1.10;;
7273;SDS011;3678;60.002;17.846;2022-11-20T04:08:02;2.00;;;1.20;;
7273;SDS011;3678;60.002;17.846;2022-11-20T04:10:29;1.75;;;1.30;;
7273;SDS011;3678;60.002;17.846;2022-11-20T04:12:56;1.60;;;1.10;;
7273;SDS011;3678;60.002;17.846;2022-11-20T04:15:24;2.05;;;1.20;;
7273;SDS011;3678;60.002;17.846;2022-11-20T04:17:51;2.33;;;1.10;;
7273;SDS011;3678;60.002;17.846;2022-11-20T04:20:18;1.40;;;1.10;;
7273;SDS011;3678;60.002;17.846;2022-11-20T04:22:45;1.45;;;1.10;;
7273;SDS011;3678;60.002;17.846;2022-11-20T04:25:14;1.20;;;1.00;;
7273;SDS011;3678;60.002;17.846;2022-11-20T04:27:41;1.30;;;0.90;;
7273;SDS011;3678;60.002;17.846;2022-11-20T04:30:08;2.17;;;1.20;;
7273;SDS011;3678;60.002;17.846;2022-11-20T04:32:36;1.58;;;0.93;;
7273;SDS011;3678;60.002;17.846;2022-11-20T04:35:03;2.00;;;1.13;;
7273;SDS011;3678;60.002;17.846;2022-11-20T04:37:31;1.37;;;0.90;;
7273;SDS011;3678;60.002;17.846;2022-11-20T04:39:58;1.83;;;1.10;;
7273;SDS011;3678;60.002;17.846;2022-11-20T04:42:27;1.30;;;1.10;;
7273;SDS011;3678;60.002;17.846;2022-11-20T04:44:54;3.05;;;1.30;;
7273;SDS011;3678;60.002;17.846;2022-11-20T04:47:22;1.55;;;1.00;;
7273;SDS011;3678;60.002;17.846;2022-11-20T04:49:49;1.80;;;1.30;;
7273;SDS011;3678;60.002;17.846;2022-11-20T04:52:16;1.00;;;0.90;;
7273;SDS011;3678;60.002;17.846;2022-11-20T04:54:43;1.33;;;1.10;;
7273;SDS011;3678;60.002;17.846;2022-11-20T04:57:12;1.20;;;0.90;;
7273;SDS011;3678;60.002;17.846;2022-11-20T04:59:40;1.48;;;1.10;;
7273;SDS011;3678;60.002;17.846;2022-11-20T05:02:08;1.55;;;0.90;;
7273;SDS011;3678;60.002;17.846;2022-11-20T05:04:35;1.23;;;0.85;;
7273;SDS011;3678;60.002;17.846;2022-11-20T05:07:02;0.95;;;0.85;;
7273;SDS011;3678;60.002;17.846;2022-11-20T05:09:29;1.10;;;1.00;;
7273;SDS011;3678;60.002;17.846;2022-11-20T05:11:57;1.63;;;0.90;;
7273;SDS011;3678;60.002;17.846;2022-11-20T05:14:24;1.10;;;0.90;;
7273;SDS011;3678;60.002;17.846;2022-11-20T05:16:52;1.35;;;0.98;;
7273;SDS011;3678;60.002;17.846;2022-11-20T05:19:20;1.50;;;1.08;;
7273;SDS011;3678;60.002;17.846;2022-11-20T05:21:47;0.98;;;0.85;;
7273;SDS011;3678;60.002;17.846;2022-11-20T05:24:14;1.10;;;0.90;;
7273;SDS011;3678;60.002;17.846;2022-11-20T05:26:41;1.70;;;1.07;;
7273;SDS011;3678;60.002;17.846;2022-11-20T05:29:09;1.05;;;0.95;;
7273;SDS011;3678;60.002;17.846;2022-11-20T05:31:38;1.27;;;0.90;;
7273;SDS011;3678;60.002;17.846;2022-11-20T05:34:06;1.40;;;0.90;;
7273;SDS011;3678;60.002;17.846;2022-11-20T05:36:34;1.50;;;0.90;;
7273;SDS011;3678;60.002;17.846;2022-11-20T05:39:01;1.15;;;0.85;;
7273;SDS011;3678;60.002;17.846;2022-11-20T05:41:28;1.00;;;0.90;;
7273;SDS011;3678;60.002;17.846;2022-11-20T05:43:56;1.20;;;0.85;;
7273;SDS011;3678;60.002;17.846;2022-11-20T05:46:24;1.33;;;0.93;;
7273;SDS011;3678;60.002;17.846;2022-11-20T05:48:51;1.30;;;0.95;;
7273;SDS011;3678;60.002;17.846;2022-11-20T05:51:19;1.15;;;1.00;;
7273;SDS011;3678;60.002;17.846;2022-11-20T05:53:47;1.33;;;1.00;;
7273;SDS011;3678;60.002;17.846;2022-11-20T05:56:15;1.08;;;0.85;;
7273;SDS011;3678;60.002;17.846;2022-11-20T05:58:43;1.23;;;0.90;;
7273;SDS011;3678;60.002;17.846;2022-11-20T06:01:12;1.10;;;0.60;;
7273;SDS011;3678;60.002;17.846;2022-11-20T06:03:39;1.35;;;0.80;;
7273;SDS011;3678;60.002;17.846;2022-11-20T06:06:07;1.70;;;0.80;;
7273;SDS011;3678;60.002;17.846;2022-11-20T06:08:36;0.98;;;0.80;;
7273;SDS011;3678;60.002;17.846;2022-11-20T06:11:03;1.20;;;0.90;;
7273;SDS011;3678;60.002;17.846;2022-11-20T06:13:31;1.17;;;0.80;;
7273;SDS011;3678;60.002;17.846;2022-11-20T06:15:58;1.10;;;0.90;;
7273;SDS011;3678;60.002;17.846;2022-11-20T06:18:26;1.52;;;0.90;;
7273;SDS011;3678;60.002;17.846;2022-11-20T06:20:59;1.42;;;0.85;;
7273;SDS011;3678;60.002;17.846;2022-11-20T06:23:27;0.93;;;0.80;;
7273;SDS011;3678;60.002;17.846;2022-11-20T06:25:55;1.52;;;0.90;;
7273;SDS011;3678;60.002;17.846;2022-11-20T06:28:23;2.10;;;0.98;;
7273;SDS011;3678;60.002;17.846;2022-11-20T06:30:50;1.30;;;0.80;;
7273;SDS011;3678;60.002;17.846;2022-11-20T06:33:17;1.33;;;0.90;;
7273;SDS011;3678;60.002;17.846;2022-11-20T06:35:44;1.92;;;0.98;;
7273;SDS011;3678;60.002;17.846;2022-11-20T06:38:11;2.05;;;1.10;;
7273;SDS011;3678;60.002;17.846;2022-11-20T06:40:39;2.42;;;1.63;;
7273;SDS011;3678;60.002;17.846;2022-11-20T06:43:08;1.85;;;1.00;;
7273;SDS011;3678;60.002;17.846;2022-11-20T06:45:36;1.30;;;0.85;;
7273;SDS011;3678;60.002;17.846;2022-11-20T06:48:03;1.25;;;0.90;;
7273;SDS011;3678;60.002;17.846;2022-11-20T06:50:30;1.60;;;1.00;;
7273;SDS011;3678;60.002;17.846;2022-11-20T06:53:00;1.15;;;0.98;;
7273;SDS011;3678;60.002;17.846;2022-11-20T06:55:28;1.10;;;1.00;;
7273;SDS011;3678;60.002;17.846;2022-11-20T06:57:55;1.00;;;0.80;;
7273;SDS011;3678;60.002;17.846;2022-11-20T07:00:24;1.15;;;0.80;;
7273;SDS011;3678;60.002;17.846;2022-11-20T07:02:51;1.67;;;0.90;;
7273;SDS011;3678;60.002;17.846;2022-11-20T07:05:18;1.35;;;0.88;;
7273;SDS011;3678;60.002;17.846;2022-11-20T07:07:45;1.00;;;0.90;;
7273;SDS011;3678;60.002;17.846;2022-11-20T07:10:12;1.60;;;0.90;;
7273;SDS011;3678;60.002;17.846;2022-11-20T07:12:39;1.37;;;1.00;;
7273;SDS011;3678;60.002;17.846;2022-11-20T07:15:07;0.88;;;0.80;;
7273;SDS011;3678;60.002;17.846;2022-11-20T07:17:36;0.90;;;0.80;;
7273;SDS011;3678;60.002;17.846;2022-11-20T07:20:03;1.13;;;0.88;;
7273;SDS011;3678;60.002;17.846;2022-11-20T07:22:30;1.05;;;0.95;;
7273;SDS011;3678;60.002;17.846;2022-11-20T07:24:57;1.52;;;1.00;;
7273;SDS011;3678;60.002;17.846;2022-11-20T07:27:24;1.38;;;1.10;;
7273;SDS011;3678;60.002;17.846;2022-11-20T07:29:51;2.15;;;1.10;;
7273;SDS011;3678;60.002;17.846;2022-11-20T07:32:19;1.60;;;1.00;;
7273;SDS011;3678;60.002;17.846;2022-11-20T07:34:48;1.20;;;0.90;;
7273;SDS011;3678;60.002;17.846;2022-11-20T07:37:15;1.15;;;0.90;;
7273;SDS011;3678;60.002;17.846;2022-11-20T07:39:42;1.75;;;1.00;;
7273;SDS011;3678;60.002;17.846;2022-11-20T07:42:10;2.25;;;1.10;;
7273;SDS011;3678;60.002;17.846;2022-11-20T07:44:37;1.60;;;0.90;;
7273;SDS011;3678;60.002;17.846;2022-11-20T07:47:05;1.52;;;1.10;;
7273;SDS011;3678;60.002;17.846;2022-11-20T07:49:32;1.40;;;1.23;;
7273;SDS011;3678;60.002;17.846;2022-11-20T07:52:00;1.50;;;0.90;;
7273;SDS011;3678;60.002;17.846;2022-11-20T07:54:27;2.03;;;0.93;;
7273;SDS011;3678;60.002;17.846;2022-11-20T07:56:55;1.90;;;1.10;;
7273;SDS011;3678;60.002;17.846;2022-11-20T07:59:22;1.80;;;0.87;;
7273;SDS011;3678;60.002;17.846;2022-11-20T08:01:49;1.52;;;0.90;;
7273;SDS011;3678;60.002;17.846;2022-11-20T08:04:16;1.07;;;0.80;;
7273;SDS011;3678;60.002;17.846;2022-11-20T08:06:43;1.35;;;1.00;;
7273;SDS011;3678;60.002;17.846;2022-11-20T08:09:12;1.10;;;1.00;;
7273;SDS011;3678;60.002;17.846;2022-11-20T08:11:39;2.25;;;1.05;;
7273;SDS011;3678;60.002;17.846;2022-11-20T08:14:24;1.35;;;0.98;;
7273;SDS011;3678;60.002;17.846;2022-11-20T08:16:52;1.17;;;1.02;;
7273;SDS011;3678;60.002;17.846;2022-11-20T08:19:20;1.10;;;0.90;;
7273;SDS011;3678;60.002;17.846;2022-11-20T08:21:47;1.80;;;1.00;;
7273;SDS011;3678;60.002;17.846;2022-11-20T08:24:15;2.10;;;1.10;;
7273;SDS011;3678;60.002;17.846;2022-11-20T08:26:43;1.50;;;0.95;;
7273;SDS011;3678;60.002;17.846;2022-11-20T08:29:10;1.20;;;0.88;;
7273;SDS011;3678;60.002;17.846;2022-11-20T08:31:37;1.00;;;0.90;;
7273;SDS011;3678;60.002;17.846;2022-11-20T08:34:04;1.70;;;0.90;;
7273;SDS011;3678;60.002;17.846;2022-11-20T08:36:32;1.05;;;0.90;;
7273;SDS011;3678;60.002;17.846;2022-11-20T08:38:59;1.00;;;0.70;;
7273;SDS011;3678;60.002;17.846;2022-11-20T08:41:28;1.15;;;0.90;;
7273;SDS011;3678;60.002;17.846;2022-11-20T08:43:58;1.00;;;0.90;;
7273;SDS011;3678;60.002;17.846;2022-11-20T08:46:27;1.20;;;0.90;;
7273;SDS011;3678;60.002;17.846;2022-11-20T08:48:55;1.10;;;0.80;;
7273;SDS011;3678;60.002;17.846;2022-11-20T08:51:22;1.70;;;0.95;;
7273;SDS011;3678;60.002;17.846;2022-11-20T08:53:49;1.65;;;1.00;;
7273;SDS011;3678;60.002;17.846;2022-11-20T08:56:16;0.85;;;0.80;;
7273;SDS011;3678;60.002;17.846;2022-11-20T08:58:45;1.10;;;0.80;;
7273;SDS011;3678;60.002;17.846;2022-11-20T09:01:12;1.02;;;0.80;;
7273;SDS011;3678;60.002;17.846;2022-11-20T09:03:39;1.55;;;1.00;;
7273;SDS011;3678;60.002;17.846;2022-11-20T09:06:06;1.20;;;0.90;;
7273;SDS011;3678;60.002;17.846;2022-11-20T09:08:34;1.33;;;0.95;;
7273;SDS011;3678;60.002;17.846;2022-11-20T09:11:02;1.13;;;0.90;;
7273;SDS011;3678;60.002;17.846;2022-11-20T09:13:29;1.00;;;0.88;;
7273;SDS011;3678;60.002;17.846;2022-11-20T09:15:58;1.38;;;0.95;;
7273;SDS011;3678;60.002;17.846;2022-11-20T09:18:26;1.05;;;0.80;;
7273;SDS011;3678;60.002;17.846;2022-11-20T09:20:56;1.20;;;1.00;;
7273;SDS011;3678;60.002;17.846;2022-11-20T09:23:23;1.45;;;0.90;;
7273;SDS011;3678;60.002;17.846;2022-11-20T09:25:51;1.63;;;1.00;;
7273;SDS011;3678;60.002;17.846;2022-11-20T09:28:20;1.52;;;1.10;;
7273;SDS011;3678;60.002;17.846;2022-11-20T09:30:47;1.40;;;1.00;;
7273;SDS011;3678;60.002;17.846;2022-11-20T09:33:16;1.92;;;1.00;;
7273;SDS011;3678;60.002;17.846;2022-11-20T09:35:43;1.40;;;0.93;;
7273;SDS011;3678;60.002;17.846;2022-11-20T09:38:11;1.60;;;0.88;;
7273;SDS011;3678;60.002;17.846;2022-11-20T09:40:40;1.30;;;0.90;;
7273;SDS011;3678;60.002;17.846;2022-11-20T09:43:12;1.08;;;0.98;;
7273;SDS011;3678;60.002;17.846;2022-11-20T09:45:50;1.80;;;1.10;;
7273;SDS011;3678;60.002;17.846;2022-11-20T09:48:27;1.00;;;0.80;;
7273;SDS011;3678;60.002;17.846;2022-11-20T09:51:01;1.00;;;0.90;;
7273;SDS011;3678;60.002;17.846;2022-11-20T09:53:32;1.73;;;1.10;;
7273;SDS011;3678;60.002;17.846;2022-11-20T09:56:02;1.73;;;1.10;;
7273;SDS011;3678;60.002;17.846;2022-11-20T09:58:31;1.40;;;0.83;;
7273;SDS011;3678;60.002;17.846;2022-11-20T10:01:03;1.93;;;1.83;;
7273;SDS011;3678;60.002;17.846;2022-11-20T10:03:36;2.93;;;0.97;;
7273;SDS011;3678;60.002;17.846;2022-11-20T10:06:04;1.10;;;1.00;;
7273;SDS011;3678;60.002;17.846;2022-11-20T10:11:00;1.33;;;1.10;;
7273;SDS011;3678;60.002;17.846;2022-11-20T10:13:34;1.83;;;1.00;;
7273;SDS011;3678;60.002;17.846;2022-11-20T10:16:14;2.00;;;0.90;;
7273;SDS011;3678;60.002;17.846;2022-11-20T10:18:48;1.80;;;1.00;;
7273;SDS011;3678;60.002;17.846;2022-11-20T10:21:23;1.13;;;1.00;;
7273;SDS011;3678;60.002;17.846;2022-11-20T10:24:02;1.40;;;1.00;;
7273;SDS011;3678;60.002;17.846;2022-11-20T10:26:34;1.50;;;1.03;;
7273;SDS011;3678;60.002;17.846;2022-11-20T10:29:07;2.40;;;1.00;;
7273;SDS011;3678;60.002;17.846;2022-11-20T10:31:37;1.10;;;0.90;;
7273;SDS011;3678;60.002;17.846;2022-11-20T10:34:07;1.20;;;1.00;;
7273;SDS011;3678;60.002;17.846;2022-11-20T10:36:40;1.33;;;1.10;;
7273;SDS011;3678;60.002;17.846;2022-11-20T10:39:13;1.47;;;1.07;;
7273;SDS011;3678;60.002;17.846;2022-11-20T10:41:41;1.20;;;1.10;;
7273;SDS011;3678;60.002;17.846;2022-11-20T10:44:11;1.13;;;0.90;;
7273;SDS011;3678;60.002;17.846;2022-11-20T10:46:39;1.90;;;1.40;;
7273;SDS011;3678;60.002;17.846;2022-11-20T10:49:13;2.10;;;1.40;;
7273;SDS011;3678;60.002;17.846;2022-11-20T10:51:44;1.10;;;1.00;;
7273;SDS011;3678;60.002;17.846;2022-11-20T10:54:17;1.53;;;1.10;;
7273;SDS011;3678;60.002;17.846;2022-11-20T10:56:46;1.23;;;0.90;;
7273;SDS011;3678;60.002;17.846;2022-11-20T10:59:28;1.63;;;1.00;;
7273;SDS011;3678;60.002;17.846;2022-11-20T11:01:59;1.52;;;1.40;;
7273;SDS011;3678;60.002;17.846;2022-11-20T11:04:32;1.85;;;1.50;;
7273;SDS011;3678;60.002;17.846;2022-11-20T11:07:04;1.60;;;1.50;;
7273;SDS011;3678;60.002;17.846;2022-11-20T11:09:32;2.15;;;1.40;;
7273;SDS011;3678;60.002;17.846;2022-11-20T11:12:01;1.55;;;1.40;;
7273;SDS011;3678;60.002;17.846;2022-11-20T11:14:28;2.53;;;1.30;;
7273;SDS011;3678;60.002;17.846;2022-11-20T11:16:56;1.58;;;1.40;;
7273;SDS011;3678;60.002;17.846;2022-11-20T11:19:24;1.80;;;1.40;;
7273;SDS011;3678;60.002;17.846;2022-11-20T11:21:53;1.60;;;1.10;;
7273;SDS011;3678;60.002;17.846;2022-11-20T11:24:22;1.63;;;1.20;;
7273;SDS011;3678;60.002;17.846;2022-11-20T11:26:53;2.23;;;1.20;;
7273;SDS011;3678;60.002;17.846;2022-11-20T11:29:22;1.30;;;1.20;;
7273;SDS011;3678;60.002;17.846;2022-11-20T11:32:02;1.67;;;1.03;;
7273;SDS011;3678;60.002;17.846;2022-11-20T11:34:29;2.70;;;1.70;;
7273;SDS011;3678;60.002;17.846;2022-11-20T11:36:58;1.70;;;1.52;;
7273;SDS011;3678;60.002;17.846;2022-11-20T11:39:26;2.15;;;1.73;;
7273;SDS011;3678;60.002;17.846;2022-11-20T11:41:54;1.63;;;1.45;;
7273;SDS011;3678;60.002;17.846;2022-11-20T11:44:21;1.88;;;1.42;;
7273;SDS011;3678;60.002;17.846;2022-11-20T11:47:09;2.33;;;1.58;;
7273;SDS011;3678;60.002;17.846;2022-11-20T11:49:38;2.05;;;1.48;;
7273;SDS011;3678;60.002;17.846;2022-11-20T11:52:10;2.30;;;1.48;;
7273;SDS011;3678;60.002;17.846;2022-11-20T11:54:41;1.90;;;1.50;;
7273;SDS011;3678;60.002;17.846;2022-11-20T11:57:11;2.05;;;1.60;;
7273;SDS011;3678;60.002;17.846;2022-11-20T11:59:41;2.53;;;1.80;;
7273;SDS011;3678;60.002;17.846;2022-11-20T12:02:14;1.95;;;1.60;;
7273;SDS011;3678;60.002;17.846;2022-11-20T12:04:43;2.08;;;1.50;;
7273;SDS011;3678;60.002;17.846;2022-11-20T12:07:14;2.10;;;1.70;;
7273;SDS011;3678;60.002;17.846;2022-11-20T12:09:43;2.10;;;1.60;;
7273;SDS011;3678;60.002;17.846;2022-11-20T12:12:14;3.50;;;1.90;;
7273;SDS011;3678;60.002;17.846;2022-11-20T12:14:45;2.03;;;1.50;;
7273;SDS011;3678;60.002;17.846;2022-11-20T12:17:14;2.00;;;1.80;;
7273;SDS011;3678;60.002;17.846;2022-11-20T12:19:43;2.22;;;1.70;;
7273;SDS011;3678;60.002;17.846;2022-11-20T12:22:14;2.47;;;1.60;;
7273;SDS011;3678;60.002;17.846;2022-11-20T12:24:50;3.95;;;1.70;;
7273;SDS011;3678;60.002;17.846;2022-11-20T12:30:07;1.20;;;1.10;;
7273;SDS011;3678;60.002;17.846;2022-11-20T12:32:39;1.90;;;1.20;;
7273;SDS011;3678;60.002;17.846;2022-11-20T12:35:13;1.50;;;1.20;;
7273;SDS011;3678;60.002;17.846;2022-11-20T12:37:47;1.27;;;1.17;;
7273;SDS011;3678;60.002;17.846;2022-11-20T12:40:20;2.73;;;1.57;;
7273;SDS011;3678;60.002;17.846;2022-11-20T12:42:54;1.93;;;1.27;;
7273;SDS011;3678;60.002;17.846;2022-11-20T12:45:54;1.43;;;1.33;;
7273;SDS011;3678;60.002;17.846;2022-11-20T12:53:59;1.30;;;1.10;;
7273;SDS011;3678;60.002;17.846;2022-11-20T12:56:29;1.40;;;1.30;;
7273;SDS011;3678;60.002;17.846;2022-11-20T12:59:02;1.53;;;1.30;;
7273;SDS011;3678;60.002;17.846;2022-11-20T13:01:35;2.23;;;1.80;;
7273;SDS011;3678;60.002;17.846;2022-11-20T13:04:15;1.77;;;1.40;;
7273;SDS011;3678;60.002;17.846;2022-11-20T13:06:44;1.57;;;1.40;;
7273;SDS011;3678;60.002;17.846;2022-11-20T13:09:13;1.40;;;1.30;;
7273;SDS011;3678;60.002;17.846;2022-11-20T13:11:41;3.13;;;1.70;;
7273;SDS011;3678;60.002;17.846;2022-11-20T13:14:14;2.07;;;1.60;;
7273;SDS011;3678;60.002;17.846;2022-11-20T13:16:45;1.50;;;1.23;;
7273;SDS011;3678;60.002;17.846;2022-11-20T13:19:15;1.63;;;1.50;;
7273;SDS011;3678;60.002;17.846;2022-11-20T13:21:43;2.03;;;1.70;;
7273;SDS011;3678;60.002;17.846;2022-11-20T13:24:21;2.00;;;1.60;;
7273;SDS011;3678;60.002;17.846;2022-11-20T13:26:59;2.17;;;1.47;;
7273;SDS011;3678;60.002;17.846;2022-11-20T13:29:28;1.80;;;1.33;;
7273;SDS011;3678;60.002;17.846;2022-11-20T13:32:03;1.97;;;1.40;;
7273;SDS011;3678;60.002;17.846;2022-11-20T13:34:30;1.83;;;1.30;;
7273;SDS011;3678;60.002;17.846;2022-11-20T13:36:58;2.00;;;1.60;;
7273;SDS011;3678;60.002;17.846;2022-11-20T13:39:30;1.77;;;1.50;;
7273;SDS011;3678;60.002;17.846;2022-11-20T13:41:58;1.57;;;1.37;;
7273;SDS011;3678;60.002;17.846;2022-11-20T13:44:27;2.27;;;1.60;;
7273;SDS011;3678;60.002;17.846;2022-11-20T13:46:55;5.13;;;1.50;;
7273;SDS011;3678;60.002;17.846;2022-11-20T13:49:24;1.50;;;1.30;;
7273;SDS011;3678;60.002;17.846;2022-11-20T13:51:55;2.00;;;1.57;;
7273;SDS011;3678;60.002;17.846;2022-11-20T13:57:23;1.50;;;1.30;;
7273;SDS011;3678;60.002;17.846;2022-11-20T13:59:55;2.58;;;1.77;;
7273;SDS011;3678;60.002;17.846;2022-11-20T14:02:25;2.80;;;1.50;;
7273;SDS011;3678;60.002;17.846;2022-11-20T14:04:54;1.90;;;1.50;;
7273;SDS011;3678;60.002;17.846;2022-11-20T14:07:23;3.70;;;1.50;;
7273;SDS011;3678;60.002;17.846;2022-11-20T14:09:52;2.03;;;1.37;;
7273;SDS011;3678;60.002;17.846;2022-11-20T14:12:20;1.80;;;1.50;;
7273;SDS011;3678;60.002;17.846;2022-11-20T14:14:50;2.25;;;1.50;;
7273;SDS011;3678;60.002;17.846;2022-11-20T14:17:18;1.40;;;1.30;;
7273;SDS011;3678;60.002;17.846;2022-11-20T14:19:46;1.70;;;1.50;;
7273;SDS011;3678;60.002;17.846;2022-11-20T14:22:18;1.77;;;1.50;;
7273;SDS011;3678;60.002;17.846;2022-11-20T14:24:45;1.90;;;1.50;;
7273;SDS011;3678;60.002;17.846;2022-11-20T14:27:14;1.97;;;1.77;;
7273;SDS011;3678;60.002;17.846;2022-11-20T14:29:41;2.10;;;1.37;;
7273;SDS011;3678;60.002;17.846;2022-11-20T14:32:11;1.73;;;1.43;;
7273;SDS011;3678;60.002;17.846;2022-11-20T14:34:41;1.70;;;1.43;;
7273;SDS011;3678;60.002;17.846;2022-11-20T14:37:11;1.97;;;1.77;;
7273;SDS011;3678;60.002;17.846;2022-11-20T14:39:40;2.10;;;1.50;;
7273;SDS011;3678;60.002;17.846;2022-11-20T14:42:14;1.30;;;1.20;;
7273;SDS011;3678;60.002;17.846;2022-11-20T14:44:41;1.97;;;1.70;;
7273;SDS011;3678;60.002;17.846;2022-11-20T14:47:11;3.83;;;1.70;;
7273;SDS011;3678;60.002;17.846;2022-11-20T14:49:40;3.40;;;1.83;;
7273;SDS011;3678;60.002;17.846;2022-11-20T14:52:11;2.10;;;1.60;;
7273;SDS011;3678;60.002;17.846;2022-11-20T14:54:43;3.33;;;1.70;;
7273;SDS011;3678;60.002;17.846;2022-11-20T14:57:19;3.20;;;1.30;;
7273;SDS011;3678;60.002;17.846;2022-11-20T14:59:47;3.47;;;1.50;;
7273;SDS011;3678;60.002;17.846;2022-11-20T15:02:14;2.10;;;1.37;;
7273;SDS011;3678;60.002;17.846;2022-11-20T15:04:47;3.03;;;1.53;;
7273;SDS011;3678;60.002;17.846;2022-11-20T15:07:23;2.53;;;1.60;;
7273;SDS011;3678;60.002;17.846;2022-11-20T15:09:59;2.73;;;1.40;;
7273;SDS011;3678;60.002;17.846;2022-11-20T15:12:26;2.97;;;1.37;;
7273;SDS011;3678;60.002;17.846;2022-11-20T15:14:53;1.63;;;1.27;;
7273;SDS011;3678;60.002;17.846;2022-11-20T15:17:20;1.50;;;1.27;;
7273;SDS011;3678;60.002;17.846;2022-11-20T15:19:49;2.20;;;2.00;;
7273;SDS011;3678;60.002;17.846;2022-11-20T15:22:16;1.87;;;1.17;;
7273;SDS011;3678;60.002;17.846;2022-11-20T15:24:43;1.93;;;1.50;;